createdAt,value
2018-02-03T00:00:44.837Z,3.30
2018-02-03T00:03:12.346Z,3.30
2018-02-03T00:05:39.915Z,3.30
2018-02-03T00:08:07.439Z,3.30
2018-02-03T00:10:35.073Z,3.30
2018-02-03T00:13:02.596Z,3.30
2018-02-03T00:15:30.873Z,3.30
2018-02-03T00:17:58.368Z,3.30
2018-02-03T00:20:26.642Z,3.30
2018-02-03T00:22:54.932Z,3.30
2018-02-03T00:25:22.496Z,3.30
2018-02-03T00:27:50.131Z,3.30
2018-02-03T00:30:17.705Z,3.30
2018-02-03T00:32:45.553Z,3.30
2018-02-03T00:35:13.053Z,3.20
2018-02-03T00:37:40.647Z,3.30
2018-02-03T00:40:08.172Z,3.20
2018-02-03T00:42:35.730Z,3.20
2018-02-03T00:45:03.343Z,3.10
2018-02-03T00:47:31.050Z,3.10
2018-02-03T00:49:58.574Z,3.10
2018-02-03T00:52:26.128Z,3.10
2018-02-03T00:54:54.451Z,3.00
2018-02-03T00:57:21.957Z,3.00
2018-02-03T00:59:50.233Z,3.00
2018-02-03T01:02:17.745Z,3.00
2018-02-03T01:04:45.263Z,3.00
2018-02-03T01:07:12.880Z,3.00
2018-02-03T01:09:41.286Z,2.90
2018-02-03T01:12:08.849Z,2.90
2018-02-03T01:14:36.486Z,3.00
2018-02-03T01:17:04.105Z,3.00
2018-02-03T01:19:31.641Z,3.00
2018-02-03T01:21:59.226Z,2.90
2018-02-03T01:24:27.498Z,3.00
2018-02-03T01:26:55.016Z,2.90
2018-02-03T01:29:23.074Z,3.00
2018-02-03T01:31:50.579Z,3.00
2018-02-03T01:34:18.092Z,3.00
2018-02-03T01:36:46.361Z,3.00
2018-02-03T01:39:13.977Z,3.00
2018-02-03T01:41:41.490Z,3.10
2018-02-03T01:44:08.986Z,3.10
2018-02-03T01:46:37.270Z,3.10
2018-02-03T01:49:04.776Z,3.10
2018-02-03T01:51:32.322Z,3.10
2018-02-03T01:54:00.578Z,3.10
2018-02-03T01:56:28.184Z,3.10
2018-02-03T01:58:56.606Z,3.10
2018-02-03T02:01:24.622Z,3.10
2018-02-03T02:03:52.267Z,3.10
2018-02-03T02:06:19.752Z,3.20
2018-02-03T02:08:47.301Z,3.10
2018-02-03T02:11:14.802Z,3.10
2018-02-03T02:13:42.307Z,3.10
2018-02-03T02:16:09.781Z,3.10
2018-02-03T02:18:38.041Z,3.10
2018-02-03T02:21:05.541Z,3.10
2018-02-03T02:23:33.863Z,3.10
2018-02-03T02:26:01.386Z,3.10
2018-02-03T02:28:29.009Z,3.10
2018-02-03T02:30:56.539Z,3.10
2018-02-03T02:33:24.852Z,3.20
2018-02-03T02:35:52.354Z,3.10
2018-02-03T02:38:19.849Z,3.20
2018-02-03T02:40:47.353Z,3.10
2018-02-03T02:43:14.861Z,3.10
2018-02-03T02:45:42.394Z,3.10
2018-02-03T02:48:09.953Z,3.10
2018-02-03T02:50:38.200Z,3.10
2018-02-03T02:53:05.715Z,3.10
2018-02-03T02:55:33.218Z,3.10
2018-02-03T02:58:00.774Z,3.10
2018-02-03T03:00:28.284Z,3.10
2018-02-03T03:02:55.888Z,3.20
2018-02-03T03:05:24.178Z,3.20
2018-02-03T03:07:52.440Z,3.20
2018-02-03T03:10:20.168Z,3.20
2018-02-03T03:12:47.702Z,3.20
2018-02-03T03:15:15.277Z,3.20
2018-02-03T03:17:42.881Z,3.20
2018-02-03T03:20:10.396Z,3.20
2018-02-03T03:22:38.693Z,3.20
2018-02-03T03:25:06.308Z,3.20
2018-02-03T03:27:33.814Z,3.20
2018-02-03T03:30:01.455Z,3.20
2018-02-03T03:32:28.957Z,3.20
2018-02-03T03:34:56.459Z,3.20
2018-02-03T03:37:23.997Z,3.20
2018-02-03T03:39:51.499Z,3.20
2018-02-03T03:42:19.108Z,3.20
2018-02-03T03:44:46.689Z,3.20
2018-02-03T03:47:14.192Z,3.20
2018-02-03T03:49:41.772Z,3.30
2018-02-03T03:52:09.265Z,3.20
2018-02-03T03:54:36.873Z,3.30
2018-02-03T03:57:04.353Z,3.30
2018-02-03T03:59:31.902Z,3.30
2018-02-03T04:01:59.397Z,3.30
2018-02-03T04:04:26.954Z,3.30
2018-02-03T04:06:54.523Z,3.30
2018-02-03T04:09:22.191Z,3.20
2018-02-03T04:11:49.707Z,3.20
2018-02-03T04:14:17.289Z,3.20
2018-02-03T04:16:44.827Z,3.20
2018-02-03T04:19:12.322Z,3.20
2018-02-03T04:21:39.822Z,3.20
2018-02-03T04:24:08.158Z,3.20
2018-02-03T04:26:35.677Z,3.20
2018-02-03T04:29:03.169Z,3.10
2018-02-03T04:31:30.649Z,3.00
2018-02-03T04:33:58.198Z,2.90
2018-02-03T04:36:27.527Z,2.80
2018-02-03T04:38:55.097Z,2.70
2018-02-03T04:41:22.665Z,2.70
2018-02-03T04:43:50.921Z,2.60
2018-02-03T04:46:18.513Z,2.60
2018-02-03T04:48:46.785Z,2.60
2018-02-03T04:51:14.285Z,2.60
2018-02-03T04:53:41.848Z,2.60
2018-02-03T04:56:10.119Z,2.60
2018-02-03T04:58:37.725Z,2.60
2018-02-03T05:01:05.225Z,2.70
2018-02-03T05:03:32.742Z,2.70
2018-02-03T05:06:01.017Z,2.70
2018-02-03T05:08:28.520Z,2.70
2018-02-03T05:10:56.774Z,2.70
2018-02-03T05:13:24.484Z,2.70
2018-02-03T05:15:51.972Z,2.70
2018-02-03T05:18:19.493Z,2.70
2018-02-03T05:20:47.086Z,2.70
2018-02-03T05:23:15.395Z,2.70
2018-02-03T05:25:42.885Z,2.70
2018-02-03T05:28:10.382Z,2.70
2018-02-03T05:30:37.862Z,2.70
2018-02-03T05:33:05.394Z,2.80
2018-02-03T05:35:32.907Z,2.70
2018-02-03T05:38:00.436Z,2.80
2018-02-03T05:40:27.932Z,2.80
2018-02-03T05:42:55.453Z,2.80
2018-02-03T05:45:22.982Z,2.80
2018-02-03T05:47:51.258Z,2.80
2018-02-03T05:50:18.801Z,2.80
2018-02-03T05:52:46.299Z,2.80
2018-02-03T05:55:13.816Z,2.80
2018-02-03T05:57:41.329Z,2.80
2018-02-03T06:00:08.814Z,2.80
2018-02-03T06:02:36.425Z,2.80
2018-02-03T06:05:04.016Z,2.90
2018-02-03T06:07:31.508Z,2.90
2018-02-03T06:09:59.216Z,2.90
2018-02-03T06:12:26.731Z,2.90
2018-02-03T06:14:54.257Z,2.80
2018-02-03T06:17:22.577Z,2.90
2018-02-03T06:19:50.071Z,2.80
2018-02-03T06:22:17.836Z,2.80
2018-02-03T06:24:45.453Z,2.80
2018-02-03T06:27:13.085Z,2.80
2018-02-03T06:29:40.649Z,2.80
2018-02-03T06:32:08.384Z,2.80
2018-02-03T06:34:37.010Z,2.80
2018-02-03T06:37:05.554Z,2.70
2018-02-03T06:39:33.076Z,2.70
2018-02-03T06:42:00.593Z,2.70
2018-02-03T06:44:28.085Z,2.70
2018-02-03T06:46:55.761Z,2.70
2018-02-03T06:49:24.033Z,2.70
2018-02-03T06:51:52.271Z,2.70
2018-02-03T06:54:19.768Z,2.70
2018-02-03T06:56:47.275Z,2.70
2018-02-03T06:59:14.845Z,2.70
2018-02-03T07:01:43.375Z,2.60
2018-02-03T07:04:10.878Z,2.60
2018-02-03T07:06:38.390Z,2.60
2018-02-03T07:09:06.718Z,2.70
2018-02-03T07:11:34.233Z,2.60
2018-02-03T07:14:02.481Z,2.70
2018-02-03T07:16:30.135Z,2.70
2018-02-03T07:18:57.619Z,2.70
2018-02-03T07:21:25.140Z,2.70
2018-02-03T07:23:52.648Z,2.80
2018-02-03T07:26:20.223Z,2.80
2018-02-03T07:28:47.715Z,2.80
2018-02-03T07:31:15.358Z,2.80
2018-02-03T07:33:42.861Z,2.80
2018-02-03T07:36:10.469Z,2.80
2018-02-03T07:38:38.175Z,2.80
2018-02-03T07:41:05.697Z,2.90
2018-02-03T07:43:33.204Z,2.90
2018-02-03T07:46:00.766Z,2.90
2018-02-03T07:48:29.075Z,2.90
2018-02-03T07:50:58.311Z,2.90
2018-02-03T07:53:25.848Z,2.90
2018-02-03T07:55:54.124Z,2.90
2018-02-03T07:58:22.406Z,2.90
2018-02-03T08:00:50.688Z,2.90
2018-02-03T08:03:18.217Z,2.90
2018-02-03T08:05:45.866Z,2.90
2018-02-03T08:08:13.441Z,2.90
2018-02-03T08:10:41.009Z,2.90
2018-02-03T08:13:08.563Z,2.90
2018-02-03T08:15:36.978Z,2.90
2018-02-03T08:18:04.510Z,2.80
2018-02-03T08:20:33.431Z,2.80
2018-02-03T08:23:01.088Z,2.80
2018-02-03T08:25:29.514Z,2.80
2018-02-03T08:27:57.006Z,2.80
2018-02-03T08:30:24.533Z,2.80
2018-02-03T08:32:52.959Z,2.80
2018-02-03T08:35:20.493Z,2.80
2018-02-03T08:37:48.760Z,2.70
2018-02-03T08:40:17.064Z,2.70
2018-02-03T08:42:45.313Z,2.70
2018-02-03T08:45:12.823Z,2.70
2018-02-03T08:47:41.074Z,2.70
2018-02-03T08:50:08.610Z,2.70
2018-02-03T08:52:36.245Z,2.70
2018-02-03T08:55:03.782Z,2.70
2018-02-03T08:57:31.295Z,2.70
2018-02-03T08:59:58.989Z,2.70
2018-02-03T09:02:26.543Z,2.60
2018-02-03T09:04:54.804Z,2.60
2018-02-03T09:07:22.329Z,2.60
2018-02-03T09:09:49.862Z,2.60
2018-02-03T09:12:17.365Z,2.60
2018-02-03T09:14:45.048Z,2.60
2018-02-03T09:17:12.820Z,2.50
2018-02-03T09:19:40.369Z,2.50
2018-02-03T09:22:08.693Z,2.50
2018-02-03T09:24:36.350Z,2.40
2018-02-03T09:27:04.229Z,2.50
2018-02-03T09:29:31.770Z,2.50
2018-02-03T09:31:59.242Z,2.50
2018-02-03T09:34:27.707Z,2.50
2018-02-03T09:36:55.354Z,2.40
2018-02-03T09:39:22.875Z,2.50
2018-02-03T09:41:51.180Z,2.40
2018-02-03T09:44:19.471Z,2.50
2018-02-03T09:46:47.781Z,2.50
2018-02-03T09:49:15.340Z,2.50
2018-02-03T09:51:42.820Z,2.50
2018-02-03T09:54:10.341Z,2.40
2018-02-03T09:56:37.939Z,2.40
2018-02-03T09:59:06.317Z,2.40
2018-02-03T10:01:34.597Z,2.40
2018-02-03T10:04:03.028Z,4.60
2018-02-03T10:06:31.199Z,4.50
2018-02-03T10:08:59.546Z,6.40
2018-02-03T10:11:27.047Z,6.40
2018-02-03T10:13:55.381Z,5.40
2018-02-03T10:16:23.753Z,4.80
2018-02-03T10:18:51.326Z,4.80
2018-02-03T10:21:18.862Z,4.30
2018-02-03T10:23:46.395Z,3.90
2018-02-03T10:26:13.949Z,3.60
2018-02-03T10:28:41.482Z,3.30
2018-02-03T10:31:09.793Z,2.90
2018-02-03T10:33:37.316Z,2.90
2018-02-03T10:36:04.825Z,2.80
2018-02-03T10:38:32.350Z,2.80
2018-02-03T10:40:59.889Z,2.70
2018-02-03T10:43:27.420Z,2.70
2018-02-03T10:45:55.843Z,2.60
2018-02-03T10:48:23.374Z,2.60
2018-02-03T10:50:51.042Z,2.60
2018-02-03T10:53:18.650Z,2.60
2018-02-03T10:55:46.227Z,2.60
2018-02-03T10:58:13.763Z,2.60
2018-02-03T11:00:46.002Z,2.60
2018-02-03T11:03:13.542Z,2.60
2018-02-03T11:05:41.822Z,2.70
2018-02-03T11:08:10.194Z,2.70
2018-02-03T11:10:37.803Z,2.60
2018-02-03T11:13:05.377Z,2.70
2018-02-03T11:15:32.942Z,2.70
2018-02-03T11:18:00.619Z,2.70
2018-02-03T11:20:28.208Z,2.60
2018-02-03T11:22:55.868Z,2.60
2018-02-03T11:25:23.410Z,2.50
2018-02-03T11:27:51.699Z,2.50
2018-02-03T11:30:19.309Z,2.50
2018-02-03T11:32:46.849Z,2.50
2018-02-03T11:35:15.263Z,2.50
2018-02-03T11:37:42.803Z,2.50
2018-02-03T11:40:10.289Z,2.40
2018-02-03T11:42:38.553Z,2.30
2018-02-03T11:45:06.249Z,2.30
2018-02-03T11:47:34.559Z,2.40
2018-02-03T11:50:02.069Z,2.40
2018-02-03T11:52:29.586Z,2.40
2018-02-03T11:54:57.864Z,2.40
2018-02-03T11:57:26.237Z,2.40
2018-02-03T11:59:55.979Z,2.40
2018-02-03T12:02:25.283Z,2.50
2018-02-03T12:04:53.718Z,2.50
2018-02-03T12:07:21.274Z,2.50
2018-02-03T12:09:48.954Z,2.60
2018-02-03T12:12:16.476Z,2.60
2018-02-03T12:14:44.112Z,2.60
2018-02-03T12:17:11.790Z,2.60
2018-02-03T12:19:39.356Z,2.60
2018-02-03T12:22:07.214Z,2.60
2018-02-03T12:24:34.744Z,2.60
2018-02-03T12:27:02.254Z,2.60
2018-02-03T12:29:29.842Z,2.60
2018-02-03T12:31:57.386Z,2.60
2018-02-03T12:34:26.002Z,2.60
2018-02-03T12:36:53.588Z,2.60
2018-02-03T12:39:21.201Z,2.60
2018-02-03T12:41:48.733Z,2.60
2018-02-03T12:44:16.326Z,2.60
2018-02-03T12:46:43.841Z,2.60
2018-02-03T12:49:11.579Z,2.60
2018-02-03T12:51:39.130Z,2.70
2018-02-03T12:54:06.673Z,2.70
2018-02-03T12:56:34.269Z,2.70
2018-02-03T12:59:01.813Z,2.70
2018-02-03T13:01:29.334Z,2.70
2018-02-03T13:03:56.851Z,2.70
2018-02-03T13:06:24.532Z,2.70
2018-02-03T13:08:52.054Z,2.60
2018-02-03T13:11:19.669Z,2.70
2018-02-03T13:13:47.251Z,2.60
2018-02-03T13:16:14.997Z,2.70
2018-02-03T13:18:43.308Z,2.70
2018-02-03T13:21:10.827Z,2.70
2018-02-03T13:23:39.170Z,2.70
2018-02-03T13:26:08.014Z,2.60
2018-02-03T13:28:35.541Z,2.70
2018-02-03T13:31:03.056Z,2.70
2018-02-03T13:33:30.591Z,2.70
2018-02-03T13:35:58.242Z,2.70
2018-02-03T13:38:26.519Z,2.70
2018-02-03T13:40:54.097Z,2.60
2018-02-03T13:43:22.382Z,2.70
2018-02-03T13:45:50.651Z,2.60
2018-02-03T13:48:18.201Z,2.60
2018-02-03T13:50:45.733Z,2.70
2018-02-03T13:53:13.281Z,2.60
2018-02-03T13:55:40.968Z,2.60
2018-02-03T13:58:09.237Z,2.60
2018-02-03T14:00:36.769Z,2.60
2018-02-03T14:03:04.258Z,2.60
2018-02-03T14:05:31.778Z,2.60
2018-02-03T14:07:59.327Z,2.60
2018-02-03T14:10:26.875Z,2.50
2018-02-03T14:12:54.374Z,2.50
2018-02-03T14:15:22.650Z,2.50
2018-02-03T14:17:50.978Z,2.50
2018-02-03T14:20:18.493Z,2.50
2018-02-03T14:22:46.081Z,2.50
2018-02-03T14:25:13.627Z,2.50
2018-02-03T14:27:41.139Z,2.40
2018-02-03T14:30:09.458Z,2.40
2018-02-03T14:32:37.038Z,2.40
2018-02-03T14:35:05.422Z,2.40
2018-02-03T14:37:33.896Z,2.40
2018-02-03T14:40:01.498Z,2.40
2018-02-03T14:42:29.149Z,2.30
2018-02-03T14:44:56.625Z,2.40
2018-02-03T14:47:24.287Z,2.40
2018-02-03T14:49:52.582Z,2.30
2018-02-03T14:52:20.103Z,2.30
2018-02-03T14:54:47.691Z,2.30
2018-02-03T14:57:15.228Z,2.30
2018-02-03T14:59:42.729Z,2.20
2018-02-03T15:02:10.245Z,2.20
2018-02-03T15:04:37.855Z,2.20
2018-02-03T15:07:05.362Z,2.10
2018-02-03T15:09:33.979Z,2.20
2018-02-03T15:12:01.499Z,2.20
2018-02-03T15:14:29.060Z,2.20
2018-02-03T15:16:56.579Z,2.20
2018-02-03T15:19:24.173Z,2.30
2018-02-03T15:21:51.759Z,2.30
2018-02-03T15:24:19.316Z,2.30
2018-02-03T15:26:46.846Z,2.30
2018-02-03T15:29:14.442Z,2.30
2018-02-03T15:31:41.957Z,2.30
2018-02-03T15:34:09.496Z,2.30
2018-02-03T15:36:37.042Z,2.50
2018-02-03T15:39:04.539Z,3.10
2018-02-03T15:41:32.143Z,4.00
2018-02-03T15:43:59.895Z,4.80
2018-02-03T15:46:27.587Z,5.30
2018-02-03T15:48:55.093Z,6.10
2018-02-03T15:51:23.390Z,7.30
2018-02-03T15:53:51.677Z,6.60
2018-02-03T15:56:19.960Z,5.80
2018-02-03T15:58:48.276Z,5.10
2018-02-03T16:01:15.845Z,5.10
2018-02-03T16:03:43.495Z,4.60
2018-02-03T16:06:11.091Z,4.20
2018-02-03T16:08:38.829Z,3.90
2018-02-03T16:11:07.109Z,3.40
2018-02-03T16:13:34.633Z,3.40
2018-02-03T16:16:02.214Z,3.30
2018-02-03T16:18:29.777Z,3.10
2018-02-03T16:20:57.417Z,3.00
2018-02-03T16:23:25.711Z,2.90
2018-02-03T16:25:54.224Z,2.80
2018-02-03T16:28:21.724Z,2.80
2018-02-03T16:30:49.360Z,2.80
2018-02-03T16:33:17.733Z,2.60
2018-02-03T16:35:45.347Z,2.60
2018-02-03T16:38:12.845Z,2.60
2018-02-03T16:40:40.386Z,2.50
2018-02-03T16:43:07.998Z,2.50
2018-02-03T16:45:35.877Z,2.50
2018-02-03T16:48:03.431Z,2.40
2018-02-03T16:50:31.097Z,2.40
2018-02-03T16:52:58.606Z,2.40
2018-02-03T16:55:26.172Z,2.40
2018-02-03T16:57:54.489Z,2.30
2018-02-03T17:00:22.163Z,2.30
2018-02-03T17:02:50.431Z,2.30
2018-02-03T17:05:18.086Z,2.30
2018-02-03T17:07:45.578Z,2.30
2018-02-03T17:10:13.152Z,2.20
2018-02-03T17:12:41.282Z,2.20
2018-02-03T17:15:08.834Z,2.20
2018-02-03T17:17:36.348Z,2.10
2018-02-03T17:20:03.985Z,2.10
2018-02-03T17:22:31.597Z,2.10
2018-02-03T17:24:59.120Z,2.10
2018-02-03T17:27:26.791Z,2.00
2018-02-03T17:29:54.372Z,2.00
2018-02-03T17:32:21.943Z,1.90
2018-02-03T17:34:49.441Z,1.90
2018-02-03T17:37:22.730Z,1.90
2018-02-03T17:39:50.264Z,1.90
2018-02-03T17:42:18.555Z,1.80
2018-02-03T17:44:46.842Z,1.80
2018-02-03T17:47:14.359Z,1.80
2018-02-03T17:49:41.860Z,1.80
2018-02-03T17:52:10.510Z,1.70
2018-02-03T17:54:38.015Z,1.70
2018-02-03T17:57:11.475Z,1.70
2018-02-03T17:59:38.981Z,1.70
2018-02-03T18:02:06.726Z,1.70
2018-02-03T18:04:34.236Z,1.60
2018-02-03T18:07:05.397Z,1.60
2018-02-03T18:09:32.939Z,1.60
2018-02-03T18:12:00.576Z,1.60
2018-02-03T18:14:28.907Z,1.60
2018-02-03T18:16:56.428Z,1.50
2018-02-03T18:19:24.730Z,1.60
2018-02-03T18:21:53.140Z,1.60
2018-02-03T18:24:20.918Z,1.60
2018-02-03T18:26:48.495Z,1.60
2018-02-03T18:29:16.058Z,1.60
2018-02-03T18:31:43.630Z,1.60
2018-02-03T18:34:11.147Z,1.60
2018-02-03T18:36:38.808Z,1.60
2018-02-03T18:39:06.399Z,1.60
2018-02-03T18:41:34.045Z,1.60
2018-02-03T18:44:01.558Z,1.60
2018-02-03T18:46:29.154Z,1.50
2018-02-03T18:48:56.781Z,1.60
2018-02-03T18:51:24.383Z,1.50
2018-02-03T18:53:52.662Z,1.60
2018-02-03T18:56:20.318Z,1.50
2018-02-03T18:58:47.932Z,1.60
2018-02-03T19:01:15.528Z,1.60
2018-02-03T19:03:43.038Z,1.60
2018-02-03T19:06:10.652Z,1.60
2018-02-03T19:08:38.202Z,1.60
2018-02-03T19:11:06.538Z,1.60
2018-02-03T19:13:34.053Z,1.60
2018-02-03T19:16:02.346Z,1.60
2018-02-03T19:18:29.880Z,1.60
2018-02-03T19:20:57.542Z,1.60
2018-02-03T19:23:25.026Z,1.50
2018-02-03T19:25:52.740Z,1.50
2018-02-03T19:28:21.043Z,1.60
2018-02-03T19:30:48.676Z,1.50
2018-02-03T19:33:16.208Z,1.50
2018-02-03T19:35:43.757Z,1.50
2018-02-03T19:38:11.285Z,1.50
2018-02-03T19:40:38.851Z,1.50
2018-02-03T19:43:06.484Z,1.50
2018-02-03T19:45:34.143Z,1.50
2018-02-03T19:48:01.692Z,1.50
2018-02-03T19:50:29.267Z,1.50
2018-02-03T19:52:57.793Z,1.50
2018-02-03T19:55:25.407Z,1.50
2018-02-03T19:57:52.949Z,1.50
2018-02-03T20:00:20.475Z,1.50
2018-02-03T20:02:48.747Z,1.50
2018-02-03T20:05:17.724Z,1.60
2018-02-03T20:07:45.236Z,1.50
2018-02-03T20:10:12.789Z,1.50
2018-02-03T20:12:40.315Z,1.50
2018-02-03T20:15:08.141Z,1.60
2018-02-03T20:17:35.727Z,1.50
2018-02-03T20:20:04.141Z,1.50
2018-02-03T20:22:31.710Z,1.50
2018-02-03T20:24:59.279Z,1.50
2018-02-03T20:27:27.687Z,1.60
2018-02-03T20:29:55.272Z,1.50
2018-02-03T20:32:22.884Z,1.60
2018-02-03T20:34:50.459Z,1.60
2018-02-03T20:37:18.230Z,1.60
2018-02-03T20:39:45.849Z,1.60
2018-02-03T20:42:13.402Z,1.50
2018-02-03T20:44:41.716Z,1.50
2018-02-03T20:47:09.482Z,1.50
2018-02-03T20:49:37.993Z,1.50
2018-02-03T20:52:05.648Z,1.50
2018-02-03T20:54:33.214Z,1.50
2018-02-03T20:57:00.768Z,1.50
2018-02-03T20:59:29.233Z,1.50
2018-02-03T21:01:56.854Z,1.50
2018-02-03T21:04:25.266Z,1.50
2018-02-03T21:06:52.851Z,1.50
2018-02-03T21:09:21.303Z,1.50
2018-02-03T21:11:49.604Z,1.50
2018-02-03T21:14:18.018Z,1.50
2018-02-03T21:16:45.561Z,1.50
2018-02-03T21:19:13.929Z,1.50
2018-02-03T21:21:41.504Z,1.50
2018-02-03T21:24:09.197Z,1.50
2018-02-03T21:26:37.918Z,1.60
2018-02-03T21:29:05.450Z,1.50
2018-02-03T21:31:32.986Z,1.60
2018-02-03T21:34:00.517Z,1.50
2018-02-03T21:36:28.069Z,1.60
2018-02-03T21:38:56.384Z,1.60
2018-02-03T21:41:23.907Z,1.60
2018-02-03T21:43:51.460Z,1.60
2018-02-03T21:46:19.002Z,1.60
2018-02-03T21:48:46.529Z,1.60
2018-02-03T21:51:14.079Z,1.60
2018-02-03T21:53:41.630Z,1.60
2018-02-03T21:56:09.143Z,1.60
2018-02-03T21:58:36.773Z,1.60
2018-02-03T22:01:04.335Z,1.60
2018-02-03T22:03:31.887Z,1.60
2018-02-03T22:05:59.384Z,1.60
2018-02-03T22:08:26.943Z,1.60
2018-02-03T22:10:54.449Z,3.10
2018-02-03T22:13:21.980Z,5.40
2018-02-03T22:15:49.555Z,7.50
2018-02-03T22:18:17.231Z,8.80
2018-02-03T22:20:44.794Z,8.60
2018-02-03T22:23:12.388Z,7.30
2018-02-03T22:25:39.966Z,6.30
2018-02-03T22:28:07.525Z,5.40
2018-02-03T22:30:35.041Z,4.70
2018-02-03T22:33:03.357Z,3.70
2018-02-03T22:37:55.975Z,3.40
2018-02-03T22:40:23.699Z,3.20
2018-02-03T22:42:51.985Z,2.80
2018-02-03T22:45:19.703Z,2.80
2018-02-03T22:47:47.240Z,2.70
2018-02-03T22:50:16.508Z,2.50
2018-02-03T22:52:44.041Z,2.50
2018-02-03T22:55:11.626Z,2.40
2018-02-03T22:57:39.162Z,2.30
2018-02-03T23:00:07.434Z,2.20
2018-02-03T23:02:40.751Z,2.20
2018-02-03T23:05:08.327Z,2.10
2018-02-03T23:07:36.851Z,2.10
2018-02-03T23:10:04.379Z,2.10
2018-02-03T23:12:32.106Z,2.10
2018-02-03T23:14:59.598Z,2.10
2018-02-03T23:17:28.123Z,2.00
2018-02-03T23:19:55.781Z,2.00
2018-02-03T23:22:24.045Z,1.90
2018-02-03T23:24:51.626Z,1.90
2018-02-03T23:27:19.140Z,1.80
2018-02-03T23:29:47.431Z,1.70
2018-02-03T23:32:15.688Z,1.80
2018-02-03T23:34:43.175Z,1.70
2018-02-03T23:37:10.886Z,1.70
2018-02-03T23:39:38.423Z,1.70
2018-02-03T23:42:06.020Z,1.70
2018-02-03T23:44:33.547Z,1.70
2018-02-03T23:47:01.125Z,1.70
2018-02-03T23:49:29.406Z,1.70
2018-02-03T23:51:57.597Z,1.60
2018-02-03T23:54:25.902Z,1.70
2018-02-03T23:56:54.223Z,1.70
2018-02-03T23:59:21.857Z,1.70
